Time,TemperatureF,DewpointF,PressureIn,WindDirection,WindDirectionDegrees,WindSpeedMPH,WindSpeedGustMPH,Humidity,HourlyPrecipIn,Conditions,Clouds,dailyrainin,SoftwareType,DateUTC
2013-03-19 00:00:00,51.9,51.6,29.87,NW,319,6.0,6.0,99,0.00,,,1.24,Wunderground v.1.15,2013-03-19 04:00:00,
2013-03-19 00:01:00,51.9,51.6,29.87,NW,307,12.0,12.0,99,0.00,,,1.24,Wunderground v.1.15,2013-03-19 04:01:00,
2013-03-19 00:02:00,51.7,51.4,29.87,NW,308,3.0,12.0,99,0.00,,,1.24,Wunderground v.1.15,2013-03-19 04:02:00,
2013-03-19 00:07:00,51.6,51.3,29.87,NW,309,3.0,12.0,99,0.00,,,1.24,Wunderground v.1.15,2013-03-19 04:07:00,
2013-03-19 00:11:00,51.1,50.6,29.87,WNW,288,5.0,6.0,98,0.00,,,1.24,Wunderground v.1.15,2013-03-19 04:11:00,
2013-03-19 00:17:00,50.7,50.2,29.88,NW,324,7.0,12.0,98,0.00,,,1.24,Wunderground v.1.15,2013-03-19 04:17:00,
2013-03-19 00:22:00,50.2,49.7,29.88,WNW,291,6.0,7.0,98,0.00,,,1.24,Wunderground v.1.15,2013-03-19 04:22:00,
2013-03-19 00:28:00,49.8,49.0,29.89,NW,307,7.0,9.0,97,0.00,,,1.24,Wunderground v.1.15,2013-03-19 04:28:00,
2013-03-19 00:34:00,49.5,48.4,29.89,NNW,330,5.0,10.0,96,0.00,,,1.24,Wunderground v.1.15,2013-03-19 04:34:00,
2013-03-19 00:39:00,49.2,48.1,29.89,NW,318,7.0,10.0,96,0.00,,,1.24,Wunderground v.1.15,2013-03-19 04:39:00,
2013-03-19 00:44:00,49.1,48.0,29.90,NNW,331,9.0,10.0,96,0.00,,,1.24,Wunderground v.1.15,2013-03-19 04:44:00,
2013-03-19 00:49:00,48.9,47.8,29.90,NW,323,6.0,6.0,96,0.00,,,1.24,Wunderground v.1.15,2013-03-19 04:49:00,
2013-03-19 00:55:00,48.9,47.5,29.90,NW,309,6.0,11.0,95,0.00,,,1.24,Wunderground v.1.15,2013-03-19 04:55:00,
2013-03-19 01:00:00,48.8,47.2,29.90,NNW,328,3.0,6.0,94,0.00,,,1.24,Wunderground v.1.15,2013-03-19 05:00:00,
2013-03-19 01:07:00,48.6,46.7,29.90,NNW,335,9.0,9.0,93,0.00,,,1.24,Wunderground v.1.15,2013-03-19 05:07:00,
2013-03-19 01:13:00,48.3,46.1,29.90,NW,323,5.0,10.0,92,0.00,,,0.00,Wunderground v.1.15,2013-03-19 05:13:00,
2013-03-19 01:18:00,48.2,46.0,29.90,NW,308,4.0,10.0,92,0.00,,,0.00,Wunderground v.1.15,2013-03-19 05:18:00,
2013-03-19 01:23:00,48.0,45.8,29.90,WNW,302,5.0,7.0,92,0.00,,,0.00,Wunderground v.1.15,2013-03-19 05:23:00,
2013-03-19 01:28:00,47.9,45.7,29.91,NW,307,7.0,12.0,92,0.00,,,0.00,Wunderground v.1.15,2013-03-19 05:28:00,
2013-03-19 01:33:00,47.6,45.4,29.91,NW,311,10.0,10.0,92,0.00,,,0.00,Wunderground v.1.15,2013-03-19 05:33:00,
2013-03-19 01:39:00,47.4,45.2,29.91,WNW,299,7.0,11.0,92,0.00,,,0.00,Wunderground v.1.15,2013-03-19 05:39:00,
2013-03-19 01:44:00,47.1,44.6,29.91,NNW,332,9.0,9.0,91,0.00,,,0.00,Wunderground v.1.15,2013-03-19 05:44:00,
2013-03-19 01:49:00,47.0,44.5,29.91,NNW,334,9.0,12.0,91,0.00,,,0.00,Wunderground v.1.15,2013-03-19 05:49:00,
2013-03-19 01:54:00,46.5,43.4,29.91,NW,323,5.0,11.0,89,0.00,,,0.00,Wunderground v.1.15,2013-03-19 05:54:00,
2013-03-19 01:59:00,46.4,42.7,29.91,NW,319,6.0,8.0,87,0.00,,,0.00,Wunderground v.1.15,2013-03-19 05:59:00,
2013-03-19 02:04:00,46.2,42.2,29.91,NNW,330,4.0,10.0,86,0.00,,,0.00,Wunderground v.1.15,2013-03-19 06:04:00,
2013-03-19 02:09:00,46.1,41.8,29.91,NNW,339,7.0,7.0,85,0.00,,,0.00,Wunderground v.1.15,2013-03-19 06:09:00,
2013-03-19 02:14:00,46.1,41.8,29.92,WNW,302,6.0,12.0,85,0.00,,,0.00,Wunderground v.1.15,2013-03-19 06:14:00,
2013-03-19 02:20:00,45.7,41.4,29.92,NNW,340,5.0,6.0,85,0.00,,,0.00,Wunderground v.1.15,2013-03-19 06:20:00,
2013-03-19 02:25:00,45.4,40.8,29.92,WNW,288,4.0,14.0,84,0.00,,,0.00,Wunderground v.1.15,2013-03-19 06:25:00,
2013-03-19 02:30:00,45.2,40.0,29.93,WNW,293,4.0,7.0,82,0.00,,,0.00,Wunderground v.1.15,2013-03-19 06:30:00,
2013-03-19 02:35:00,45.1,39.3,29.93,NNW,337,13.0,17.0,80,0.00,,,0.00,Wunderground v.1.15,2013-03-19 06:35:00,
2013-03-19 02:40:00,44.9,39.1,29.93,NW,316,3.0,6.0,80,0.00,,,0.00,Wunderground v.1.15,2013-03-19 06:40:00,
2013-03-19 02:45:00,44.6,39.1,29.94,NW,307,1.0,8.0,81,0.00,,,0.00,Wunderground v.1.15,2013-03-19 06:45:00,
2013-03-19 02:50:00,44.5,39.0,29.94,WNW,302,1.0,3.0,81,0.00,,,0.00,Wunderground v.1.15,2013-03-19 06:50:00,
2013-03-19 02:55:00,44.3,38.8,29.94,NW,316,6.0,13.0,81,0.00,,,0.00,Wunderground v.1.15,2013-03-19 06:55:00,
2013-03-19 03:00:00,44.1,38.6,29.95,NW,316,3.0,5.0,81,0.00,,,0.00,Wunderground v.1.15,2013-03-19 07:00:00,
2013-03-19 03:05:00,43.9,38.1,29.95,WNW,297,3.0,12.0,80,0.00,,,0.00,Wunderground v.1.15,2013-03-19 07:05:00,
2013-03-19 03:10:00,43.8,38.0,29.95,NNW,330,3.0,6.0,80,0.00,,,0.00,Wunderground v.1.15,2013-03-19 07:10:00,
2013-03-19 03:15:00,43.6,37.8,29.95,NW,304,1.0,16.0,80,0.00,,,0.00,Wunderground v.1.15,2013-03-19 07:15:00,
2013-03-19 03:20:00,43.5,37.7,29.95,NW,307,7.0,14.0,80,0.00,,,0.00,Wunderground v.1.15,2013-03-19 07:20:00,
2013-03-19 03:25:00,43.3,37.2,29.95,NW,315,5.0,18.0,79,0.00,,,0.00,Wunderground v.1.15,2013-03-19 07:25:00,
2013-03-19 03:30:00,43.2,37.4,29.97,WNW,293,15.0,15.0,80,0.00,,,0.00,Wunderground v.1.15,2013-03-19 07:30:00,
2013-03-19 03:35:00,42.9,36.8,29.97,North,354,5.0,15.0,79,0.00,,,0.00,Wunderground v.1.15,2013-03-19 07:35:00,
2013-03-19 03:40:00,42.6,36.2,29.97,NW,312,6.0,10.0,78,0.00,,,0.00,Wunderground v.1.15,2013-03-19 07:40:00,
2013-03-19 03:45:00,42.5,36.4,29.98,NW,306,10.0,16.0,79,0.00,,,0.00,Wunderground v.1.15,2013-03-19 07:45:00,
2013-03-19 03:50:00,42.2,36.5,29.98,North,354,4.0,6.0,80,0.00,,,0.00,Wunderground v.1.15,2013-03-19 07:50:00,
2013-03-19 03:55:00,42.1,36.7,29.98,NNW,347,4.0,7.0,81,0.00,,,0.00,Wunderground v.1.15,2013-03-19 07:55:00,
2013-03-19 04:00:00,41.8,36.4,30.00,WNW,290,6.0,7.0,81,0.00,,,0.00,Wunderground v.1.15,2013-03-19 08:00:00,
2013-03-19 04:05:00,41.5,35.2,30.00,NNW,333,3.0,11.0,78,0.00,,,0.00,Wunderground v.1.15,2013-03-19 08:05:00,
2013-03-19 04:10:00,41.2,34.9,30.00,WNW,302,6.0,6.0,78,0.00,,,0.00,Wunderground v.1.15,2013-03-19 08:10:00,
2013-03-19 04:15:00,40.9,34.6,30.01,NW,316,5.0,11.0,78,0.00,,,0.00,Wunderground v.1.15,2013-03-19 08:15:00,
2013-03-19 04:20:00,40.6,34.3,30.01,NW,318,3.0,4.0,78,0.00,,,0.00,Wunderground v.1.15,2013-03-19 08:20:00,
2013-03-19 04:25:00,40.5,34.2,30.01,NW,326,2.0,6.0,78,0.00,,,0.00,Wunderground v.1.15,2013-03-19 08:25:00,
2013-03-19 04:30:00,40.2,33.9,30.01,NW,325,2.0,4.0,78,0.00,,,0.00,Wunderground v.1.15,2013-03-19 08:30:00,
2013-03-19 04:35:00,40.1,33.5,30.01,NNW,335,3.0,7.0,77,0.00,,,0.00,Wunderground v.1.15,2013-03-19 08:35:00,
2013-03-19 04:40:00,39.9,32.6,30.01,NNW,335,5.0,5.0,75,0.00,,,0.00,Wunderground v.1.15,2013-03-19 08:40:00,
2013-03-19 04:46:00,39.8,32.5,30.03,NNW,343,9.0,11.0,75,0.00,,,0.00,Wunderground v.1.15,2013-03-19 08:46:00,
2013-03-19 04:51:00,39.6,32.0,30.03,NNW,336,0.0,4.0,74,0.00,,,0.00,Wunderground v.1.15,2013-03-19 08:51:00,
2013-03-19 04:56:00,39.5,31.6,30.03,NNE,13,0.0,4.0,73,0.00,,,0.00,Wunderground v.1.15,2013-03-19 08:56:00,
2013-03-19 05:01:00,39.3,31.4,30.03,North,6,0.0,3.0,73,0.00,,,0.00,Wunderground v.1.15,2013-03-19 09:01:00,
2013-03-19 05:06:00,39.2,30.9,30.03,NNW,340,0.0,6.0,72,0.00,,,0.00,Wunderground v.1.15,2013-03-19 09:06:00,
2013-03-19 05:11:00,39.1,30.8,30.03,NNW,342,0.0,2.0,72,0.00,,,0.00,Wunderground v.1.15,2013-03-19 09:11:00,
2013-03-19 05:16:00,38.9,30.6,30.03,NNW,335,0.0,4.0,72,0.00,,,0.00,Wunderground v.1.15,2013-03-19 09:16:00,
2013-03-19 05:21:00,38.8,30.2,30.03,North,352,0.0,0.0,71,0.00,,,0.00,Wunderground v.1.15,2013-03-19 09:21:00,
2013-03-19 05:27:00,38.8,30.2,30.04,NNW,338,4.0,5.0,71,0.00,,,0.00,Wunderground v.1.15,2013-03-19 09:27:00,
2013-03-19 05:32:00,38.8,30.2,30.04,NNW,345,2.0,4.0,71,0.00,,,0.00,Wunderground v.1.15,2013-03-19 09:32:00,
2013-03-19 05:37:00,38.8,30.2,30.04,NNW,347,3.0,6.0,71,0.00,,,0.00,Wunderground v.1.15,2013-03-19 09:37:00,
2013-03-19 05:42:00,38.6,30.4,30.04,NNW,347,0.0,4.0,72,0.00,,,0.00,Wunderground v.1.15,2013-03-19 09:42:00,
2013-03-19 05:47:00,38.5,30.3,30.04,NNW,347,3.0,4.0,72,0.00,,,0.00,Wunderground v.1.15,2013-03-19 09:47:00,
2013-03-19 05:52:00,38.3,30.1,30.04,NW,308,2.0,6.0,72,0.00,,,0.00,Wunderground v.1.15,2013-03-19 09:52:00,
2013-03-19 05:57:00,38.3,30.1,30.05,NW,309,0.0,6.0,72,0.00,,,0.00,Wunderground v.1.15,2013-03-19 09:57:00,
2013-03-19 06:02:00,38.0,30.1,30.05,NW,311,4.0,4.0,73,0.00,,,0.00,Wunderground v.1.15,2013-03-19 10:02:00,
2013-03-19 06:07:00,38.0,30.1,30.05,NW,311,3.0,4.0,73,0.00,,,0.00,Wunderground v.1.15,2013-03-19 10:07:00,
2013-03-19 06:12:00,37.9,30.0,30.05,NW,311,0.0,2.0,73,0.00,,,0.00,Wunderground v.1.15,2013-03-19 10:12:00,
2013-03-19 06:17:00,37.8,30.3,30.05,NW,311,0.0,3.0,74,0.00,,,0.00,Wunderground v.1.15,2013-03-19 10:17:00,
2013-03-19 06:22:00,37.6,30.1,30.05,NW,318,0.0,5.0,74,0.00,,,0.00,Wunderground v.1.15,2013-03-19 10:22:00,
2013-03-19 06:27:00,37.5,30.3,30.05,NW,318,0.0,5.0,75,0.00,,,0.00,Wunderground v.1.15,2013-03-19 10:27:00,
2013-03-19 06:32:00,37.2,30.7,30.05,NW,318,0.0,2.0,77,0.00,,,0.00,Wunderground v.1.15,2013-03-19 10:32:00,
2013-03-19 06:37:00,37.0,30.5,30.05,NW,318,0.0,2.0,77,0.00,,,0.00,Wunderground v.1.15,2013-03-19 10:37:00,
2013-03-19 06:42:00,36.8,30.6,30.06,NW,318,0.0,3.0,78,0.00,,,0.00,Wunderground v.1.15,2013-03-19 10:42:00,
2013-03-19 06:47:00,36.5,30.3,30.06,NW,318,0.0,3.0,78,0.00,,,0.00,Wunderground v.1.15,2013-03-19 10:47:00,
2013-03-19 06:52:00,36.3,30.4,30.06,NW,318,0.0,0.0,79,0.00,,,0.00,Wunderground v.1.15,2013-03-19 10:52:00,
2013-03-19 06:57:00,36.2,30.3,30.07,NW,318,0.0,0.0,79,0.00,,,0.00,Wunderground v.1.15,2013-03-19 10:57:00,
2013-03-19 07:02:00,35.9,30.3,30.07,NW,318,0.0,0.0,80,0.00,,,0.00,Wunderground v.1.15,2013-03-19 11:02:00,
2013-03-19 07:07:00,35.8,30.2,30.07,NW,318,0.0,0.0,80,0.00,,,0.00,Wunderground v.1.15,2013-03-19 11:07:00,
2013-03-19 07:12:00,35.6,30.0,30.07,NW,318,0.0,0.0,80,0.00,,,0.00,Wunderground v.1.15,2013-03-19 11:12:00,
2013-03-19 07:17:00,35.5,29.9,30.07,NW,318,0.0,0.0,80,0.00,,,0.00,Wunderground v.1.15,2013-03-19 11:17:00,
2013-03-19 07:23:00,35.3,30.1,30.07,NW,318,0.0,0.0,81,0.00,,,0.00,Wunderground v.1.15,2013-03-19 11:23:00,
2013-03-19 07:28:00,35.3,30.4,30.07,NW,318,0.0,0.0,82,0.00,,,0.00,Wunderground v.1.15,2013-03-19 11:28:00,
2013-03-19 07:33:00,35.0,30.1,30.07,NW,318,0.0,0.0,82,0.00,,,0.00,Wunderground v.1.15,2013-03-19 11:33:00,
2013-03-19 07:38:00,35.0,30.1,30.07,NW,318,0.0,0.0,82,0.00,,,0.00,Wunderground v.1.15,2013-03-19 11:38:00,
2013-03-19 07:43:00,35.0,30.4,30.07,NW,318,1.0,2.0,83,0.00,,,0.00,Wunderground v.1.15,2013-03-19 11:43:00,
2013-03-19 07:48:00,34.9,30.6,30.07,NW,318,0.0,2.0,84,0.00,,,0.00,Wunderground v.1.15,2013-03-19 11:48:00,
2013-03-19 07:53:00,34.9,30.3,30.07,NW,318,0.0,0.0,83,0.00,,,0.00,Wunderground v.1.15,2013-03-19 11:53:00,
2013-03-19 07:58:00,35.0,30.4,30.07,NW,318,0.0,0.0,83,0.00,,,0.00,Wunderground v.1.15,2013-03-19 11:58:00,
2013-03-19 08:03:00,35.2,30.3,30.07,NW,318,0.0,0.0,82,0.00,,,0.00,Wunderground v.1.15,2013-03-19 12:03:00,
2013-03-19 08:08:00,35.5,30.2,30.07,NW,318,0.0,0.0,81,0.00,,,0.00,Wunderground v.1.15,2013-03-19 12:08:00,
2013-03-19 08:13:00,35.9,30.3,30.06,NW,318,0.0,0.0,80,0.00,,,0.00,Wunderground v.1.15,2013-03-19 12:13:00,
2013-03-19 08:18:00,36.6,30.7,30.06,NW,318,0.0,0.0,79,0.00,,,0.00,Wunderground v.1.15,2013-03-19 12:18:00,
2013-03-19 08:23:00,37.3,31.1,30.06,NW,318,0.0,0.0,78,0.00,,,0.00,Wunderground v.1.15,2013-03-19 12:23:00,
2013-03-19 08:28:00,37.9,31.3,30.06,NW,318,0.0,0.0,77,0.00,,,0.00,Wunderground v.1.15,2013-03-19 12:28:00,
2013-03-19 08:33:00,38.3,31.4,30.06,NW,318,0.0,0.0,76,0.00,,,0.00,Wunderground v.1.15,2013-03-19 12:33:00,
2013-03-19 08:38:00,38.6,31.4,30.06,NW,318,0.0,0.0,75,0.00,,,0.00,Wunderground v.1.15,2013-03-19 12:38:00,
2013-03-19 08:43:00,38.9,31.6,30.06,WNW,291,0.0,0.0,75,0.00,,,0.00,Wunderground v.1.15,2013-03-19 12:43:00,
2013-03-19 08:48:00,39.3,32.0,30.06,WNW,291,0.0,0.0,75,0.00,,,0.00,Wunderground v.1.15,2013-03-19 12:48:00,
2013-03-19 08:53:00,39.9,32.9,30.06,WNW,291,0.0,1.0,76,0.00,,,0.00,Wunderground v.1.15,2013-03-19 12:53:00,
2013-03-19 08:59:00,40.3,32.7,30.07,WNW,290,0.0,1.0,74,0.00,,,0.00,Wunderground v.1.15,2013-03-19 12:59:00,
2013-03-19 09:04:00,41.1,33.1,30.07,WNW,290,0.0,1.0,73,0.00,,,0.00,Wunderground v.1.15,2013-03-19 13:04:00,
2013-03-19 09:09:00,41.8,32.7,30.07,WNW,290,0.0,1.0,70,0.00,,,0.00,Wunderground v.1.15,2013-03-19 13:09:00,
2013-03-19 09:14:00,42.2,33.5,30.07,WNW,291,0.0,2.0,71,0.00,,,0.00,Wunderground v.1.15,2013-03-19 13:14:00,
2013-03-19 09:19:00,42.3,32.8,30.07,WNW,290,0.0,2.0,69,0.00,,,0.00,Wunderground v.1.15,2013-03-19 13:19:00,
2013-03-19 09:24:00,42.6,33.1,30.07,WNW,291,1.0,2.0,69,0.00,,,0.00,Wunderground v.1.15,2013-03-19 13:24:00,
2013-03-19 09:29:00,43.2,33.7,30.07,WNW,291,0.0,2.0,69,0.00,,,0.00,Wunderground v.1.15,2013-03-19 13:29:00,
2013-03-19 09:34:00,44.1,32.7,30.07,WNW,291,0.0,3.0,64,0.00,,,0.00,Wunderground v.1.15,2013-03-19 13:34:00,
2013-03-19 09:39:00,44.1,32.3,30.07,WNW,291,0.0,3.0,63,0.00,,,0.00,Wunderground v.1.15,2013-03-19 13:39:00,
2013-03-19 09:44:00,44.1,33.1,30.08,WNW,291,3.0,4.0,65,0.00,,,0.00,Wunderground v.1.15,2013-03-19 13:44:00,
2013-03-19 09:49:00,43.5,33.3,30.08,WNW,293,2.0,5.0,67,0.00,,,0.00,Wunderground v.1.15,2013-03-19 13:49:00,
2013-03-19 09:54:00,43.5,33.3,30.08,WNW,300,2.0,5.0,67,0.00,,,0.00,Wunderground v.1.15,2013-03-19 13:54:00,
2013-03-19 09:59:00,43.9,33.6,30.08,WNW,300,1.0,5.0,67,0.00,,,0.00,Wunderground v.1.15,2013-03-19 13:59:00,
2013-03-19 10:04:00,44.2,33.6,30.08,NW,321,3.0,6.0,66,0.00,,,0.00,Wunderground v.1.15,2013-03-19 14:04:00,
2013-03-19 10:09:00,44.6,33.6,30.08,NNW,335,4.0,6.0,65,0.00,,,0.00,Wunderground v.1.15,2013-03-19 14:09:00,
2013-03-19 10:14:00,45.1,33.6,30.08,North,349,1.0,6.0,64,0.00,,,0.00,Wunderground v.1.15,2013-03-19 14:14:00,
2013-03-19 10:19:00,46.0,33.3,30.08,NNW,335,2.0,6.0,61,0.00,,,0.00,Wunderground v.1.15,2013-03-19 14:19:00,
2013-03-19 10:24:00,46.2,33.1,30.08,NW,322,3.0,9.0,60,0.00,,,0.00,Wunderground v.1.15,2013-03-19 14:24:00,
2013-03-19 10:29:00,46.1,31.3,30.09,NW,308,3.0,9.0,56,0.00,,,0.00,Wunderground v.1.15,2013-03-19 14:29:00,
2013-03-19 10:35:00,46.4,32.4,30.09,WNW,302,3.0,10.0,58,0.00,,,0.00,Wunderground v.1.15,2013-03-19 14:35:00,
2013-03-19 10:40:00,46.5,30.7,30.09,NW,316,4.0,4.0,54,0.00,,,0.00,Wunderground v.1.15,2013-03-19 14:40:00,
2013-03-19 10:45:00,46.2,29.5,30.09,NW,309,0.0,10.0,52,0.00,,,0.00,Wunderground v.1.15,2013-03-19 14:45:00,
2013-03-19 10:50:00,46.4,32.0,30.09,NW,311,0.0,4.0,57,0.00,,,0.00,Wunderground v.1.15,2013-03-19 14:50:00,
2013-03-19 10:55:00,46.7,32.3,30.09,NW,316,9.0,11.0,57,0.00,,,0.00,Wunderground v.1.15,2013-03-19 14:55:00,
2013-03-19 11:00:00,46.4,32.0,30.10,NW,309,9.0,11.0,57,0.00,,,0.00,Wunderground v.1.15,2013-03-19 15:00:00,
2013-03-19 11:05:00,46.2,31.8,30.10,NW,313,4.0,13.0,57,0.00,,,0.00,Wunderground v.1.15,2013-03-19 15:05:00,
2013-03-19 11:10:00,46.7,32.3,30.10,NNW,332,4.0,6.0,57,0.00,,,0.00,Wunderground v.1.15,2013-03-19 15:10:00,
2013-03-19 11:15:00,47.0,32.5,30.10,NW,316,3.0,9.0,57,0.00,,,0.00,Wunderground v.1.15,2013-03-19 15:15:00,
2013-03-19 11:20:00,47.9,33.4,30.10,NNE,20,3.0,4.0,57,0.00,,,0.00,Wunderground v.1.15,2013-03-19 15:20:00,
2013-03-19 11:25:00,48.0,32.1,30.10,WNW,293,3.0,11.0,54,0.00,,,0.00,Wunderground v.1.15,2013-03-19 15:25:00,
2013-03-19 11:30:00,48.3,34.2,30.10,NW,313,7.0,12.0,58,0.00,,,0.00,Wunderground v.1.15,2013-03-19 15:30:00,
2013-03-19 11:35:00,48.0,34.3,30.10,NW,311,3.0,12.0,59,0.00,,,0.00,Wunderground v.1.15,2013-03-19 15:35:00,
2013-03-19 11:40:00,48.3,34.2,30.10,NW,311,3.0,5.0,58,0.00,,,0.00,Wunderground v.1.15,2013-03-19 15:40:00,
2013-03-19 11:45:00,48.5,34.4,30.09,WNW,294,6.0,12.0,58,0.00,,,0.00,Wunderground v.1.15,2013-03-19 15:45:00,
2013-03-19 11:50:00,48.9,34.3,30.09,WNW,297,4.0,9.0,57,0.00,,,0.00,Wunderground v.1.15,2013-03-19 15:50:00,
2013-03-19 11:55:00,49.4,33.0,30.09,North,355,6.0,9.0,53,0.00,,,0.00,Wunderground v.1.15,2013-03-19 15:55:00,
2013-03-19 12:00:00,49.5,31.6,30.09,NW,307,6.0,8.0,50,0.00,,,0.00,Wunderground v.1.15,2013-03-19 16:00:00,
2013-03-19 12:05:00,49.8,30.4,30.09,NW,305,7.0,10.0,47,0.00,,,0.00,Wunderground v.1.15,2013-03-19 16:05:00,
2013-03-19 12:10:00,49.9,31.0,30.09,NW,316,2.0,10.0,48,0.00,,,0.00,Wunderground v.1.15,2013-03-19 16:10:00,
2013-03-19 12:16:00,49.9,29.4,30.08,NW,309,7.0,13.0,45,0.00,,,0.00,Wunderground v.1.15,2013-03-19 16:16:00,
2013-03-19 12:21:00,50.2,30.2,30.08,North,8,8.0,11.0,46,0.00,,,0.00,Wunderground v.1.15,2013-03-19 16:21:00,
2013-03-19 12:26:00,50.2,29.1,30.08,North,358,6.0,11.0,44,0.00,,,0.00,Wunderground v.1.15,2013-03-19 16:26:00,
2013-03-19 12:31:00,50.7,29.0,30.09,NNW,330,7.0,13.0,43,0.00,,,0.00,Wunderground v.1.15,2013-03-19 16:31:00,
2013-03-19 12:36:00,51.0,29.3,30.09,NW,310,11.0,16.0,43,0.00,,,0.00,Wunderground v.1.15,2013-03-19 16:36:00,
2013-03-19 12:41:00,51.3,32.3,30.09,NW,318,4.0,7.0,48,0.00,,,0.00,Wunderground v.1.15,2013-03-19 16:41:00,
2013-03-19 12:46:00,51.6,26.8,30.10,North,358,5.0,11.0,38,0.00,,,0.00,Wunderground v.1.15,2013-03-19 16:46:00,
2013-03-19 12:51:00,51.6,28.0,30.10,NNW,340,4.0,11.0,40,0.00,,,0.00,Wunderground v.1.15,2013-03-19 16:51:00,
2013-03-19 12:56:00,51.9,29.5,30.10,WNW,295,3.0,12.0,42,0.00,,,0.00,Wunderground v.1.15,2013-03-19 16:56:00,
2013-03-19 13:01:00,51.9,28.3,30.10,NW,314,3.0,10.0,40,0.00,,,0.00,Wunderground v.1.15,2013-03-19 17:01:00,
2013-03-19 13:06:00,52.3,27.4,30.10,NW,314,3.0,10.0,38,0.00,,,0.00,Wunderground v.1.15,2013-03-19 17:06:00,
2013-03-19 13:11:00,52.6,28.9,30.10,WNW,300,9.0,12.0,40,0.00,,,0.00,Wunderground v.1.15,2013-03-19 17:11:00,
2013-03-19 13:16:00,52.5,29.5,30.10,NNW,342,6.0,12.0,41,0.00,,,0.00,Wunderground v.1.15,2013-03-19 17:16:00,
2013-03-19 13:21:00,52.8,27.9,30.10,NNW,328,5.0,7.0,38,0.00,,,0.00,Wunderground v.1.15,2013-03-19 17:21:00,
2013-03-19 13:26:00,53.3,30.2,30.10,WNW,302,4.0,9.0,41,0.00,,,0.00,Wunderground v.1.15,2013-03-19 17:26:00,
2013-03-19 13:31:00,53.3,28.3,30.10,NW,323,2.0,8.0,38,0.00,,,0.00,Wunderground v.1.15,2013-03-19 17:31:00,
2013-03-19 13:36:00,53.5,27.8,30.10,NW,308,5.0,9.0,37,0.00,,,0.00,Wunderground v.1.15,2013-03-19 17:36:00,
2013-03-19 13:41:00,53.6,27.3,30.09,NW,321,9.0,10.0,36,0.00,,,0.00,Wunderground v.1.15,2013-03-19 17:41:00,
2013-03-19 13:47:00,53.6,29.8,30.09,North,352,0.0,10.0,40,0.00,,,0.00,Wunderground v.1.15,2013-03-19 17:47:00,
2013-03-19 13:52:00,53.9,26.8,30.09,North,357,1.0,4.0,35,0.00,,,0.00,Wunderground v.1.15,2013-03-19 17:52:00,
2013-03-19 13:57:00,54.4,31.2,30.10,WNW,286,6.0,11.0,41,0.00,,,0.00,Wunderground v.1.15,2013-03-19 17:57:00,
2013-03-19 14:02:00,54.5,24.4,30.10,NNW,330,1.0,4.0,31,0.00,,,0.00,Wunderground v.1.15,2013-03-19 18:02:00,
2013-03-19 14:07:00,54.4,27.3,30.10,North,1,3.0,10.0,35,0.00,,,0.00,Wunderground v.1.15,2013-03-19 18:07:00,
2013-03-19 14:12:00,54.8,26.2,30.11,NNW,337,3.0,10.0,33,0.00,,,0.00,Wunderground v.1.15,2013-03-19 18:12:00,
2013-03-19 14:17:00,54.5,27.4,30.11,WNW,295,2.0,10.0,35,0.00,,,0.00,Wunderground v.1.15,2013-03-19 18:17:00,
2013-03-19 14:22:00,54.8,28.3,30.11,NNW,337,5.0,7.0,36,0.00,,,0.00,Wunderground v.1.15,2013-03-19 18:22:00,
2013-03-19 14:27:00,55.3,28.1,30.11,NW,306,3.0,7.0,35,0.00,,,0.00,Wunderground v.1.15,2013-03-19 18:27:00,
2013-03-19 14:32:00,54.7,28.2,30.11,WNW,297,5.0,7.0,36,0.00,,,0.00,Wunderground v.1.15,2013-03-19 18:32:00,
2013-03-19 14:37:00,54.5,26.0,30.11,WNW,299,5.0,14.0,33,0.00,,,0.00,Wunderground v.1.15,2013-03-19 18:37:00,
2013-03-19 14:42:00,54.8,26.2,30.10,NNW,328,6.0,11.0,33,0.00,,,0.00,Wunderground v.1.15,2013-03-19 18:42:00,
2013-03-19 14:48:00,54.7,26.1,30.10,NW,315,10.0,14.0,33,0.00,,,0.00,Wunderground v.1.15,2013-03-19 18:48:00,
2013-03-19 14:53:00,54.5,26.7,30.10,WNW,288,11.0,15.0,34,0.00,,,0.00,Wunderground v.1.15,2013-03-19 18:53:00,
2013-03-19 14:58:00,54.5,28.1,30.10,NW,326,6.0,15.0,36,0.00,,,0.00,Wunderground v.1.15,2013-03-19 18:58:00,
2013-03-19 15:02:00,55.0,24.9,30.10,North,356,1.0,14.0,31,0.00,,,0.00,Wunderground v.1.15,2013-03-19 19:02:00,
2013-03-19 15:08:00,55.3,25.9,30.10,NW,314,6.0,14.0,32,0.00,,,0.00,Wunderground v.1.15,2013-03-19 19:08:00,
2013-03-19 15:13:00,55.3,25.9,30.10,NW,323,7.0,9.0,32,0.00,,,0.00,Wunderground v.1.15,2013-03-19 19:13:00,
2013-03-19 15:18:00,55.4,27.5,30.10,NW,321,4.0,13.0,34,0.00,,,0.00,Wunderground v.1.15,2013-03-19 19:18:00,
2013-03-19 15:23:00,55.6,25.4,30.10,NW,308,6.0,12.0,31,0.00,,,0.00,Wunderground v.1.15,2013-03-19 19:23:00,
2013-03-19 15:28:00,55.3,28.1,30.10,NNW,344,2.0,14.0,35,0.00,,,0.00,Wunderground v.1.15,2013-03-19 19:28:00,
2013-03-19 15:33:00,55.3,26.7,30.10,NW,307,10.0,12.0,33,0.00,,,0.00,Wunderground v.1.15,2013-03-19 19:33:00,
2013-03-19 15:38:00,54.8,22.3,30.10,NNW,335,5.0,14.0,28,0.00,,,0.00,Wunderground v.1.15,2013-03-19 19:38:00,
2013-03-19 15:43:00,54.5,24.4,30.10,NW,321,3.0,10.0,31,0.00,,,0.00,Wunderground v.1.15,2013-03-19 19:43:00,
2013-03-19 15:48:00,54.2,24.9,30.10,NW,314,5.0,11.0,32,0.00,,,0.00,Wunderground v.1.15,2013-03-19 19:48:00,
2013-03-19 15:53:00,54.7,24.6,30.10,NW,326,3.0,11.0,31,0.00,,,0.00,Wunderground v.1.15,2013-03-19 19:53:00,
2013-03-19 15:58:00,54.8,24.7,30.10,NNW,333,5.0,12.0,31,0.00,,,0.00,Wunderground v.1.15,2013-03-19 19:58:00,
2013-03-19 16:03:00,54.4,23.6,30.10,WNW,295,13.0,14.0,30,0.00,,,0.00,Wunderground v.1.15,2013-03-19 20:03:00,
2013-03-19 16:08:00,54.2,25.7,30.10,NNW,328,5.0,14.0,33,0.00,,,0.00,Wunderground v.1.15,2013-03-19 20:08:00,
2013-03-19 16:13:00,54.7,24.6,30.11,NNW,340,4.0,7.0,31,0.00,,,0.00,Wunderground v.1.15,2013-03-19 20:13:00,
2013-03-19 16:18:00,55.0,22.4,30.11,WNW,291,12.0,15.0,28,0.00,,,0.00,Wunderground v.1.15,2013-03-19 20:18:00,
2013-03-19 16:23:00,54.7,22.2,30.11,WNW,295,7.0,11.0,28,0.00,,,0.00,Wunderground v.1.15,2013-03-19 20:23:00,
2013-03-19 16:28:00,54.7,22.2,30.11,NW,323,16.0,18.0,28,0.00,,,0.00,Wunderground v.1.15,2013-03-19 20:28:00,
2013-03-19 16:33:00,54.4,20.2,30.11,NW,314,10.0,13.0,26,0.00,,,0.00,Wunderground v.1.15,2013-03-19 20:33:00,
2013-03-19 16:38:00,54.2,20.9,30.11,WNW,290,3.0,13.0,27,0.00,,,0.00,Wunderground v.1.15,2013-03-19 20:38:00,
2013-03-19 16:43:00,54.2,21.8,30.11,NNW,340,5.0,13.0,28,0.00,,,0.00,Wunderground v.1.15,2013-03-19 20:43:00,
2013-03-19 16:48:00,54.1,19.0,30.11,WNW,285,5.0,13.0,25,0.00,,,0.00,Wunderground v.1.15,2013-03-19 20:48:00,
2013-03-19 16:53:00,53.8,19.7,30.11,NNW,336,0.0,10.0,26,0.00,,,0.00,Wunderground v.1.15,2013-03-19 20:53:00,
2013-03-19 16:58:00,53.8,19.7,30.12,NW,308,6.0,14.0,26,0.00,,,0.00,Wunderground v.1.15,2013-03-19 20:58:00,
2013-03-19 17:03:00,53.8,16.8,30.12,West,271,2.0,11.0,23,0.00,,,0.00,Wunderground v.1.15,2013-03-19 21:03:00,
2013-03-19 17:08:00,53.8,19.7,30.12,NW,323,10.0,13.0,26,0.00,,,0.00,Wunderground v.1.15,2013-03-19 21:08:00,
2013-03-19 17:13:00,53.5,17.5,30.13,WNW,295,2.0,6.0,24,0.00,,,0.00,Wunderground v.1.15,2013-03-19 21:13:00,
2013-03-19 17:18:00,53.6,18.6,30.13,West,273,6.0,9.0,25,0.00,,,0.00,Wunderground v.1.15,2013-03-19 21:18:00,
2013-03-19 17:23:00,53.5,18.5,30.13,NW,311,5.0,10.0,25,0.00,,,0.00,Wunderground v.1.15,2013-03-19 21:23:00,
2013-03-19 17:28:00,53.2,17.3,30.13,NNW,340,7.0,16.0,24,0.00,,,0.00,Wunderground v.1.15,2013-03-19 21:28:00,
2013-03-19 17:33:00,52.8,17.9,30.13,WNW,297,12.0,16.0,25,0.00,,,0.00,Wunderground v.1.15,2013-03-19 21:33:00,
2013-03-19 17:38:00,52.8,16.9,30.13,NW,323,6.0,16.0,24,0.00,,,0.00,Wunderground v.1.15,2013-03-19 21:38:00,
2013-03-19 17:43:00,52.8,18.8,30.13,NW,307,10.0,13.0,26,0.00,,,0.00,Wunderground v.1.15,2013-03-19 21:43:00,
2013-03-19 17:48:00,52.6,16.8,30.13,NW,310,8.0,13.0,24,0.00,,,0.00,Wunderground v.1.15,2013-03-19 21:48:00,
2013-03-19 17:53:00,52.8,18.8,30.13,NNW,347,5.0,11.0,26,0.00,,,0.00,Wunderground v.1.15,2013-03-19 21:53:00,
2013-03-19 17:58:00,52.9,17.0,30.13,NW,313,4.0,11.0,24,0.00,,,0.00,Wunderground v.1.15,2013-03-19 21:58:00,
2013-03-19 18:03:00,52.8,16.0,30.13,NW,308,7.0,11.0,23,0.00,,,0.00,Wunderground v.1.15,2013-03-19 22:03:00,
2013-03-19 18:08:00,52.3,16.5,30.13,NW,317,11.0,11.0,24,0.00,,,0.00,Wunderground v.1.15,2013-03-19 22:08:00,
2013-03-19 18:13:00,51.9,17.1,30.13,NW,320,4.0,12.0,25,0.00,,,0.00,Wunderground v.1.15,2013-03-19 22:13:00,
2013-03-19 18:18:00,52.0,16.3,30.13,NW,307,5.0,12.0,24,0.00,,,0.00,Wunderground v.1.15,2013-03-19 22:18:00,
2013-03-19 18:23:00,51.9,16.2,30.13,NW,319,3.0,7.0,24,0.00,,,0.00,Wunderground v.1.15,2013-03-19 22:23:00,
2013-03-19 18:29:00,51.6,16.9,30.14,WNW,297,7.0,12.0,25,0.00,,,0.00,Wunderground v.1.15,2013-03-19 22:29:00,
2013-03-19 18:34:00,51.1,14.5,30.14,NW,314,4.0,9.0,23,0.00,,,0.00,Wunderground v.1.15,2013-03-19 22:34:00,
2013-03-19 18:39:00,50.8,15.2,30.14,NNW,328,4.0,10.0,24,0.00,,,0.00,Wunderground v.1.15,2013-03-19 22:39:00,
2013-03-19 18:44:00,50.5,13.0,30.14,NW,323,2.0,9.0,22,0.00,,,0.00,Wunderground v.1.15,2013-03-19 22:44:00,
2013-03-19 18:49:00,50.4,12.9,30.14,NNW,339,4.0,9.0,22,0.00,,,0.00,Wunderground v.1.15,2013-03-19 22:49:00,
2013-03-19 18:54:00,49.9,12.5,30.14,NNW,327,5.0,10.0,22,0.00,,,0.00,Wunderground v.1.15,2013-03-19 22:54:00,
2013-03-19 18:59:00,49.6,15.2,30.15,NNW,338,4.0,12.0,25,0.00,,,0.00,Wunderground v.1.15,2013-03-19 22:59:00,
2013-03-19 19:04:00,49.4,13.1,30.15,NW,315,3.0,9.0,23,0.00,,,0.00,Wunderground v.1.15,2013-03-19 23:04:00,
2013-03-19 19:09:00,49.1,14.7,30.15,NW,315,6.0,9.0,25,0.00,,,0.00,Wunderground v.1.15,2013-03-19 23:09:00,
2013-03-19 19:14:00,49.1,14.7,30.15,NW,311,2.0,8.0,25,0.00,,,0.00,Wunderground v.1.15,2013-03-19 23:14:00,
2013-03-19 19:19:00,48.8,14.5,30.15,NW,310,2.0,8.0,25,0.00,,,0.00,Wunderground v.1.15,2013-03-19 23:19:00,
2013-03-19 19:24:00,48.6,16.1,30.15,NW,316,0.0,6.0,27,0.00,,,0.00,Wunderground v.1.15,2013-03-19 23:24:00,
2013-03-19 19:29:00,48.3,15.8,30.16,NW,311,3.0,8.0,27,0.00,,,0.00,Wunderground v.1.15,2013-03-19 23:29:00,
2013-03-19 19:34:00,48.0,15.6,30.16,NW,311,1.0,4.0,27,0.00,,,0.00,Wunderground v.1.15,2013-03-19 23:34:00,
2013-03-19 19:39:00,47.7,16.1,30.16,NW,314,4.0,6.0,28,0.00,,,0.00,Wunderground v.1.15,2013-03-19 23:39:00,
2013-03-19 19:44:00,47.6,16.1,30.16,NW,314,0.0,5.0,28,0.00,,,0.00,Wunderground v.1.15,2013-03-19 23:44:00,
2013-03-19 19:49:00,47.1,18.0,30.16,NW,314,4.0,5.0,31,0.00,,,0.00,Wunderground v.1.15,2013-03-19 23:49:00,
2013-03-19 19:54:00,46.7,16.9,30.16,NW,314,1.0,5.0,30,0.00,,,0.00,Wunderground v.1.15,2013-03-19 23:54:00,
2013-03-19 19:59:00,46.2,17.2,30.16,NW,321,2.0,7.0,31,0.00,,,0.00,Wunderground v.1.15,2013-03-19 23:59:00,
2013-03-19 20:04:00,45.8,17.6,30.16,NW,321,2.0,3.0,32,0.00,,,0.00,Wunderground v.1.15,2013-03-20 00:04:00,
2013-03-19 20:09:00,45.5,15.0,30.16,NW,321,5.0,6.0,29,0.00,,,0.00,Wunderground v.1.15,2013-03-20 00:09:00,
2013-03-19 20:14:00,45.4,17.9,30.16,NNW,340,4.0,7.0,33,0.00,,,0.00,Wunderground v.1.15,2013-03-20 00:14:00,
2013-03-19 20:19:00,45.1,17.0,30.16,NNW,340,3.0,7.0,32,0.00,,,0.00,Wunderground v.1.15,2013-03-20 00:19:00,
2013-03-19 20:24:00,44.9,16.0,30.16,NNW,335,2.0,6.0,31,0.00,,,0.00,Wunderground v.1.15,2013-03-20 00:24:00,
2013-03-19 20:29:00,44.8,17.4,30.15,NW,314,5.0,6.0,33,0.00,,,0.00,Wunderground v.1.15,2013-03-20 00:29:00,
2013-03-19 20:34:00,44.8,16.7,30.15,NW,314,0.0,4.0,32,0.00,,,0.00,Wunderground v.1.15,2013-03-20 00:34:00,
2013-03-19 20:39:00,44.6,17.9,30.15,NW,314,0.0,4.0,34,0.00,,,0.00,Wunderground v.1.15,2013-03-20 00:39:00,
2013-03-19 20:44:00,44.5,17.8,30.16,NW,314,2.0,3.0,34,0.00,,,0.00,Wunderground v.1.15,2013-03-20 00:44:00,
2013-03-19 20:49:00,44.2,16.9,30.16,NW,314,0.0,3.0,33,0.00,,,0.00,Wunderground v.1.15,2013-03-20 00:49:00,
2013-03-19 20:55:00,44.1,16.8,30.16,NW,314,0.0,1.0,33,0.00,,,0.00,Wunderground v.1.15,2013-03-20 00:55:00,
2013-03-19 21:00:00,43.9,18.6,30.16,NW,314,0.0,0.0,36,0.00,,,0.00,Wunderground v.1.15,2013-03-20 01:00:00,
2013-03-19 21:05:00,43.6,16.3,30.16,NW,314,0.0,1.0,33,0.00,,,0.00,Wunderground v.1.15,2013-03-20 01:05:00,
2013-03-19 21:10:00,43.5,15.5,30.16,NW,314,0.0,1.0,32,0.00,,,0.00,Wunderground v.1.15,2013-03-20 01:10:00,
2013-03-19 21:15:00,43.2,14.6,30.16,NW,314,0.0,5.0,31,0.00,,,0.00,Wunderground v.1.15,2013-03-20 01:15:00,
2013-03-19 21:20:00,43.1,15.9,30.16,NW,314,2.0,2.0,33,0.00,,,0.00,Wunderground v.1.15,2013-03-20 01:20:00,
2013-03-19 21:25:00,42.9,14.3,30.16,NW,316,1.0,4.0,31,0.00,,,0.00,Wunderground v.1.15,2013-03-20 01:25:00,
2013-03-19 21:30:00,42.8,14.9,30.15,NW,316,0.0,1.0,32,0.00,,,0.00,Wunderground v.1.15,2013-03-20 01:30:00,
2013-03-19 21:35:00,42.6,14.8,30.15,NW,316,0.0,3.0,32,0.00,,,0.00,Wunderground v.1.15,2013-03-20 01:35:00,
2013-03-19 21:40:00,42.3,17.2,30.15,NW,316,0.0,1.0,36,0.00,,,0.00,Wunderground v.1.15,2013-03-20 01:40:00,
2013-03-19 21:45:00,42.1,16.4,30.16,NW,316,0.0,3.0,35,0.00,,,0.00,Wunderground v.1.15,2013-03-20 01:45:00,
2013-03-19 21:50:00,42.1,17.0,30.16,NW,314,5.0,5.0,36,0.00,,,0.00,Wunderground v.1.15,2013-03-20 01:50:00,
2013-03-19 21:55:00,42.2,13.7,30.16,NW,314,3.0,6.0,31,0.00,,,0.00,Wunderground v.1.15,2013-03-20 01:55:00,
2013-03-19 22:00:00,42.3,14.5,30.16,NW,314,3.0,5.0,32,0.00,,,0.00,Wunderground v.1.15,2013-03-20 02:00:00,
2013-03-19 22:05:00,42.5,14.7,30.16,NW,314,1.0,5.0,32,0.00,,,0.00,Wunderground v.1.15,2013-03-20 02:05:00,
2013-03-19 22:10:00,42.6,16.2,30.16,NW,314,0.0,1.0,34,0.00,,,0.00,Wunderground v.1.15,2013-03-20 02:10:00,
2013-03-19 22:15:00,42.8,13.5,30.16,NW,314,2.0,4.0,30,0.00,,,0.00,Wunderground v.1.15,2013-03-20 02:15:00,
2013-03-19 22:20:00,42.8,14.2,30.16,NW,314,3.0,4.0,31,0.00,,,0.00,Wunderground v.1.15,2013-03-20 02:20:00,
2013-03-19 22:25:00,42.8,11.9,30.16,NW,319,1.0,5.0,28,0.00,,,0.00,Wunderground v.1.15,2013-03-20 02:25:00,
2013-03-19 22:30:00,42.8,12.7,30.15,NW,319,0.0,1.0,29,0.00,,,0.00,Wunderground v.1.15,2013-03-20 02:30:00,
2013-03-19 22:35:00,42.8,15.6,30.15,NW,319,0.0,1.0,33,0.00,,,0.00,Wunderground v.1.15,2013-03-20 02:35:00,
2013-03-19 22:40:00,42.5,13.2,30.15,NW,319,0.0,0.0,30,0.00,,,0.00,Wunderground v.1.15,2013-03-20 02:40:00,
2013-03-19 22:45:00,42.3,13.8,30.16,NW,319,0.0,2.0,31,0.00,,,0.00,Wunderground v.1.15,2013-03-20 02:45:00,
2013-03-19 22:50:00,42.3,14.5,30.16,NW,319,0.0,0.0,32,0.00,,,0.00,Wunderground v.1.15,2013-03-20 02:50:00,
2013-03-19 22:55:00,42.2,11.4,30.16,NW,319,0.0,3.0,28,0.00,,,0.00,Wunderground v.1.15,2013-03-20 02:55:00,
2013-03-19 23:00:00,42.3,14.5,30.17,NW,319,0.0,0.0,32,0.00,,,0.00,Wunderground v.1.15,2013-03-20 03:00:00,
2013-03-19 23:05:00,42.3,13.0,30.17,NW,319,1.0,3.0,30,0.00,,,0.00,Wunderground v.1.15,2013-03-20 03:05:00,
2013-03-19 23:10:00,42.3,14.5,30.17,NW,319,2.0,2.0,32,0.00,,,0.00,Wunderground v.1.15,2013-03-20 03:10:00,
2013-03-19 23:15:00,42.3,14.5,30.17,NW,319,1.0,5.0,32,0.00,,,0.00,Wunderground v.1.15,2013-03-20 03:15:00,
2013-03-19 23:20:00,42.3,13.8,30.17,NW,319,0.0,3.0,31,0.00,,,0.00,Wunderground v.1.15,2013-03-20 03:20:00,
2013-03-19 23:25:00,42.3,13.8,30.17,NW,319,0.0,3.0,31,0.00,,,0.00,Wunderground v.1.15,2013-03-20 03:25:00,
2013-03-19 23:30:00,42.3,13.0,30.15,NW,319,0.0,0.0,30,0.00,,,0.00,Wunderground v.1.15,2013-03-20 03:30:00,
2013-03-19 23:35:00,42.3,11.5,30.15,NW,319,0.0,4.0,28,0.00,,,0.00,Wunderground v.1.15,2013-03-20 03:35:00,
2013-03-19 23:40:00,42.3,13.0,30.15,NW,319,0.0,1.0,30,0.00,,,0.00,Wunderground v.1.15,2013-03-20 03:40:00,
2013-03-19 23:45:00,42.3,12.3,30.15,NW,319,0.0,3.0,29,0.00,,,0.00,Wunderground v.1.15,2013-03-20 03:45:00,
2013-03-19 23:50:00,42.3,10.6,30.15,NW,321,3.0,4.0,27,0.00,,,0.00,Wunderground v.1.15,2013-03-20 03:50:00,
2013-03-19 23:55:00,42.3,11.5,30.15,NW,321,1.0,4.0,28,0.00,,,0.00,Wunderground v.1.15,2013-03-20 03:55:00,